createdAt,value
2017-09-24T00:01:12.498Z,92.50
2017-09-24T00:03:44.524Z,92.40
2017-09-24T00:06:15.300Z,92.30
2017-09-24T00:08:47.137Z,92.60
2017-09-24T00:11:18.100Z,92.60
2017-09-24T00:13:49.564Z,92.90
2017-09-24T00:16:20.595Z,92.80
2017-09-24T00:18:51.827Z,92.80
2017-09-24T00:21:22.828Z,92.80
2017-09-24T00:23:53.717Z,92.80
2017-09-24T00:26:24.685Z,92.80
2017-09-24T00:28:55.591Z,93.00
2017-09-24T00:31:26.597Z,92.90
2017-09-24T00:33:57.945Z,92.90
2017-09-24T00:36:29.406Z,92.90
2017-09-24T00:39:00.382Z,92.80
2017-09-24T00:41:31.290Z,92.90
2017-09-24T00:44:02.993Z,93.00
2017-09-24T00:46:34.096Z,93.00
2017-09-24T00:49:05.471Z,93.00
2017-09-24T00:51:37.060Z,92.90
2017-09-24T00:54:07.825Z,93.00
2017-09-24T00:56:40.142Z,93.00
2017-09-24T00:59:11.221Z,93.00
2017-09-24T01:01:42.142Z,93.00
2017-09-24T01:04:13.120Z,92.90
2017-09-24T01:06:45.370Z,92.90
2017-09-24T01:09:16.405Z,92.90
2017-09-24T01:11:47.815Z,92.90
2017-09-24T01:14:18.862Z,92.90
2017-09-24T01:16:49.830Z,93.00
2017-09-24T01:19:20.325Z,93.00
2017-09-24T01:21:51.354Z,93.00
2017-09-24T01:24:22.442Z,93.00
2017-09-24T01:26:53.334Z,93.00
2017-09-24T01:29:24.313Z,93.00
2017-09-24T01:31:55.888Z,93.00
2017-09-24T01:34:26.949Z,92.90
2017-09-24T01:36:57.267Z,92.90
2017-09-24T01:39:28.989Z,93.10
2017-09-24T01:42:00.712Z,93.10
2017-09-24T01:44:31.781Z,93.10
2017-09-24T01:47:02.802Z,93.10
2017-09-24T01:49:33.301Z,93.10
2017-09-24T01:52:03.755Z,93.10
2017-09-24T01:54:34.718Z,93.10
2017-09-24T01:57:05.632Z,93.20
2017-09-24T01:59:36.217Z,93.30
2017-09-24T02:02:08.004Z,93.30
2017-09-24T02:04:38.815Z,93.30
2017-09-24T02:07:10.688Z,93.20
2017-09-24T02:09:42.024Z,93.20
2017-09-24T02:12:13.717Z,93.50
2017-09-24T02:14:44.737Z,93.20
2017-09-24T02:17:15.915Z,93.20
2017-09-24T02:19:46.710Z,93.20
2017-09-24T02:22:17.550Z,93.20
2017-09-24T02:24:48.642Z,93.30
2017-09-24T02:27:19.619Z,93.20
2017-09-24T02:29:50.941Z,93.30
2017-09-24T02:32:21.891Z,93.30
2017-09-24T02:34:53.416Z,93.30
2017-09-24T02:37:24.495Z,93.30
2017-09-24T02:39:56.031Z,93.10
2017-09-24T02:42:27.184Z,93.40
2017-09-24T02:44:58.901Z,93.30
2017-09-24T02:47:30.712Z,93.30
2017-09-24T02:50:01.994Z,93.30
2017-09-24T02:52:33.015Z,93.20
2017-09-24T02:55:04.143Z,93.30
2017-09-24T02:57:35.065Z,93.40
2017-09-24T03:00:06.802Z,93.30
2017-09-24T03:02:38.181Z,93.40
2017-09-24T03:05:09.337Z,93.10
2017-09-24T03:07:40.565Z,93.10
2017-09-24T03:10:12.189Z,93.30
2017-09-24T03:12:43.446Z,93.30
2017-09-24T03:15:14.371Z,93.20
2017-09-24T03:17:45.242Z,92.90
2017-09-24T03:20:17.327Z,93.60
2017-09-24T03:22:48.462Z,93.60
2017-09-24T03:25:19.280Z,93.70
2017-09-24T03:27:51.213Z,94.00
2017-09-24T03:30:21.507Z,94.00
2017-09-24T03:32:52.518Z,94.00
2017-09-24T03:35:23.331Z,93.60
2017-09-24T03:37:54.520Z,93.40
2017-09-24T03:40:25.498Z,93.50
2017-09-24T03:42:57.327Z,93.40
2017-09-24T03:45:27.543Z,93.40
2017-09-24T03:47:58.391Z,93.50
2017-09-24T03:50:29.232Z,93.50
2017-09-24T03:52:59.929Z,93.40
2017-09-24T03:55:30.667Z,93.60
2017-09-24T03:58:01.595Z,93.70
2017-09-24T04:00:32.688Z,93.80
2017-09-24T04:03:02.989Z,93.90
2017-09-24T04:05:33.858Z,93.90
2017-09-24T04:08:04.635Z,94.00
2017-09-24T04:10:35.175Z,93.90
2017-09-24T04:13:06.117Z,93.90
2017-09-24T04:15:36.975Z,93.90
2017-09-24T04:18:07.643Z,93.90
2017-09-24T04:20:38.306Z,94.00
2017-09-24T04:23:09.645Z,94.00
2017-09-24T04:25:41.274Z,94.00
2017-09-24T04:28:12.315Z,94.00
2017-09-24T04:30:43.154Z,93.70
2017-09-24T04:33:14.637Z,94.10
2017-09-24T04:35:45.232Z,94.10
2017-09-24T04:38:16.203Z,94.10
2017-09-24T04:40:47.987Z,94.20
2017-09-24T04:43:18.685Z,94.20
2017-09-24T04:45:49.687Z,94.20
2017-09-24T04:48:20.923Z,94.30
2017-09-24T04:50:51.647Z,94.20
2017-09-24T04:53:22.308Z,94.30
2017-09-24T04:55:52.951Z,94.20
2017-09-24T04:58:24.386Z,94.20
2017-09-24T05:00:54.973Z,94.20
2017-09-24T05:03:25.808Z,94.10
2017-09-24T05:05:57.571Z,93.80
2017-09-24T05:08:28.766Z,93.80
2017-09-24T05:11:00.381Z,94.10
2017-09-24T05:13:31.355Z,94.10
2017-09-24T05:16:02.738Z,94.30
2017-09-24T05:18:34.733Z,94.30
2017-09-24T05:22:09.090Z,94.20
2017-09-24T05:24:40.825Z,94.20
2017-09-24T05:27:11.329Z,94.60
2017-09-24T05:29:42.493Z,94.10
2017-09-24T05:32:14.749Z,94.10
2017-09-24T05:34:45.605Z,94.40
2017-09-24T05:37:16.370Z,94.00
2017-09-24T05:39:48.529Z,93.90
2017-09-24T05:42:19.380Z,93.80
2017-09-24T05:44:50.691Z,94.10
2017-09-24T05:47:21.238Z,94.00
2017-09-24T05:49:52.010Z,94.20
2017-09-24T05:52:22.870Z,93.80
2017-09-24T05:54:53.746Z,94.20
2017-09-24T05:57:24.603Z,94.20
2017-09-24T05:59:56.232Z,94.10
2017-09-24T06:02:27.651Z,93.90
2017-09-24T06:04:58.337Z,93.80
2017-09-24T06:07:30.047Z,93.50
2017-09-24T06:10:00.921Z,93.50
2017-09-24T06:12:31.663Z,93.30
2017-09-24T06:15:03.390Z,93.40
2017-09-24T06:17:34.466Z,93.40
2017-09-24T06:20:05.332Z,93.30
2017-09-24T06:22:36.023Z,93.40
2017-09-24T06:25:06.671Z,93.20
2017-09-24T06:27:37.327Z,93.00
2017-09-24T06:30:08.238Z,92.80
2017-09-24T06:32:41.200Z,92.40
2017-09-24T06:35:11.958Z,92.40
2017-09-24T06:37:42.853Z,92.30
2017-09-24T06:40:14.293Z,92.20
2017-09-24T06:42:45.467Z,92.20
2017-09-24T06:45:16.356Z,92.20
2017-09-24T06:47:47.484Z,92.00
2017-09-24T06:50:19.692Z,92.00
2017-09-24T06:52:50.788Z,91.90
2017-09-24T06:55:22.413Z,91.70
2017-09-24T06:57:53.938Z,91.50
2017-09-24T07:00:25.083Z,91.50
2017-09-24T07:02:55.926Z,91.30
2017-09-24T07:05:26.747Z,91.30
2017-09-24T07:07:57.990Z,91.70
2017-09-24T07:10:29.172Z,91.30
2017-09-24T07:13:00.021Z,91.60
2017-09-24T07:15:31.987Z,90.50
2017-09-24T07:18:02.184Z,90.50
2017-09-24T07:20:33.763Z,90.40
2017-09-24T07:23:03.814Z,90.40
2017-09-24T07:25:34.550Z,89.80
2017-09-24T07:28:06.967Z,87.80
2017-09-24T07:30:38.529Z,86.90
2017-09-24T07:33:10.175Z,86.90
2017-09-24T07:35:41.117Z,86.90
2017-09-24T07:38:12.635Z,87.60
2017-09-24T07:40:44.341Z,87.60
2017-09-24T07:43:15.290Z,87.20
2017-09-24T07:45:46.183Z,87.80
2017-09-24T07:48:16.923Z,87.90
2017-09-24T07:50:47.951Z,87.00
2017-09-24T07:53:18.848Z,86.30
2017-09-24T07:55:49.784Z,86.30
2017-09-24T07:58:20.788Z,85.20
2017-09-24T08:00:52.502Z,82.10
2017-09-24T08:03:23.198Z,82.00
2017-09-24T08:05:54.180Z,82.60
2017-09-24T08:08:25.113Z,81.00
2017-09-24T08:10:55.934Z,81.50
2017-09-24T08:13:26.558Z,82.40
2017-09-24T08:15:57.881Z,81.30
2017-09-24T08:18:28.813Z,79.80
2017-09-24T08:21:00.194Z,75.50
2017-09-24T08:23:30.756Z,75.30
2017-09-24T08:26:02.386Z,73.80
2017-09-24T08:28:33.297Z,72.40
2017-09-24T08:31:04.430Z,72.10
2017-09-24T08:33:35.578Z,76.00
2017-09-24T08:36:06.467Z,71.50
2017-09-24T08:41:09.674Z,63.90
2017-09-24T08:43:40.274Z,63.30
2017-09-24T08:46:11.219Z,60.90
2017-09-24T08:48:42.816Z,60.10
2017-09-24T08:51:13.815Z,58.50
2017-09-24T08:53:44.710Z,60.20
2017-09-24T08:56:16.213Z,57.70
2017-09-24T08:58:47.167Z,57.60
2017-09-24T09:01:18.157Z,58.50
2017-09-24T09:03:49.755Z,59.70
2017-09-24T09:06:20.325Z,59.10
2017-09-24T09:08:51.825Z,56.80
2017-09-24T09:11:23.078Z,56.70
2017-09-24T09:13:54.073Z,56.80
2017-09-24T09:16:25.835Z,55.40
2017-09-24T09:18:57.846Z,55.30
2017-09-24T09:21:38.287Z,55.30
2017-09-24T09:24:08.903Z,56.00
2017-09-24T09:26:39.331Z,54.60
2017-09-24T09:29:10.997Z,53.70
2017-09-24T09:31:42.070Z,53.70
2017-09-24T09:34:22.514Z,54.30
2017-09-24T09:36:53.884Z,53.40
2017-09-24T09:39:24.666Z,53.40
2017-09-24T09:41:55.205Z,52.70
2017-09-24T09:44:35.771Z,51.20
2017-09-24T09:47:16.890Z,51.60
2017-09-24T09:49:47.496Z,50.00
2017-09-24T09:52:18.355Z,49.20
2017-09-24T09:54:49.031Z,47.40
2017-09-24T09:57:19.592Z,49.60
2017-09-24T09:59:50.602Z,50.10
2017-09-24T10:02:21.270Z,52.10
2017-09-24T10:04:51.861Z,51.70
2017-09-24T10:07:32.206Z,52.20
2017-09-24T10:10:13.382Z,52.20
2017-09-24T10:12:44.263Z,52.10
2017-09-24T10:15:15.119Z,50.80
2017-09-24T10:17:45.819Z,48.80
2017-09-24T10:20:16.677Z,47.20
2017-09-24T10:22:48.355Z,46.60
2017-09-24T10:25:19.305Z,46.60
2017-09-24T10:27:50.858Z,44.80
2017-09-24T10:30:31.244Z,44.80
2017-09-24T10:33:05.046Z,44.40
2017-09-24T10:35:36.081Z,44.40
2017-09-24T10:38:07.942Z,47.60
2017-09-24T10:40:39.511Z,47.70
2017-09-24T10:43:10.285Z,48.00
2017-09-24T10:45:41.515Z,49.90
2017-09-24T10:48:12.125Z,48.50
2017-09-24T10:50:42.830Z,46.90
2017-09-24T10:53:14.576Z,45.50
2017-09-24T10:55:44.815Z,45.50
2017-09-24T10:58:16.434Z,49.10
2017-09-24T11:00:48.229Z,50.20
2017-09-24T11:03:19.891Z,51.20
2017-09-24T11:05:50.705Z,51.20
2017-09-24T11:08:22.223Z,51.20
2017-09-24T11:10:53.333Z,51.10
2017-09-24T11:13:24.450Z,50.00
2017-09-24T11:15:55.817Z,49.90
2017-09-24T11:18:26.947Z,49.80
2017-09-24T11:20:57.776Z,49.70
2017-09-24T11:23:29.541Z,51.30
2017-09-24T11:26:01.007Z,50.60
2017-09-24T11:28:32.007Z,50.60
2017-09-24T11:31:02.560Z,51.30
2017-09-24T11:33:33.613Z,50.20
2017-09-24T11:36:04.696Z,49.40
2017-09-24T11:38:35.103Z,47.00
2017-09-24T11:41:06.056Z,45.40
2017-09-24T11:43:37.123Z,44.00
2017-09-24T11:46:09.806Z,44.60
2017-09-24T11:48:41.120Z,45.00
2017-09-24T11:51:11.898Z,44.60
2017-09-24T11:53:42.134Z,44.40
2017-09-24T11:56:13.602Z,44.00
2017-09-24T11:58:44.502Z,43.90
2017-09-24T12:01:15.450Z,46.00
2017-09-24T12:03:46.883Z,45.00
2017-09-24T12:06:17.379Z,43.70
2017-09-24T12:08:48.487Z,43.90
2017-09-24T12:11:20.398Z,44.40
2017-09-24T12:13:51.821Z,44.40
2017-09-24T12:16:24.013Z,44.00
2017-09-24T12:18:54.714Z,44.40
2017-09-24T12:21:25.471Z,43.80
2017-09-24T12:23:55.968Z,43.10
2017-09-24T12:26:27.675Z,41.90
2017-09-24T12:28:58.854Z,41.80
2017-09-24T12:31:30.445Z,41.50
2017-09-24T12:34:01.781Z,41.60
2017-09-24T12:36:32.593Z,42.70
2017-09-24T12:39:04.115Z,42.10
2017-09-24T12:41:35.200Z,42.10
2017-09-24T12:44:06.171Z,42.40
2017-09-24T12:46:37.377Z,43.10
2017-09-24T12:49:08.333Z,42.30
2017-09-24T12:51:40.413Z,41.30
2017-09-24T12:54:11.031Z,41.70
2017-09-24T12:56:43.379Z,41.90
2017-09-24T12:59:15.539Z,44.20
2017-09-24T13:01:46.461Z,44.10
2017-09-24T13:04:16.840Z,43.90
2017-09-24T13:06:47.237Z,43.30
2017-09-24T13:09:17.890Z,42.90
2017-09-24T13:11:48.842Z,42.30
2017-09-24T13:14:19.463Z,43.10
2017-09-24T13:16:50.687Z,42.70
2017-09-24T13:19:22.023Z,41.60
2017-09-24T13:21:52.934Z,41.60
2017-09-24T13:24:24.323Z,40.70
2017-09-24T13:26:55.832Z,40.10
2017-09-24T13:29:26.751Z,40.00
2017-09-24T13:31:58.078Z,41.00
2017-09-24T13:34:29.239Z,43.90
2017-09-24T13:37:01.065Z,43.80
2017-09-24T13:39:31.587Z,43.80
2017-09-24T13:42:02.369Z,45.60
2017-09-24T13:44:33.886Z,45.00
2017-09-24T13:47:04.965Z,45.00
2017-09-24T13:49:35.914Z,45.80
2017-09-24T13:52:06.726Z,46.40
2017-09-24T13:54:37.552Z,46.00
2017-09-24T13:57:08.375Z,44.90
2017-09-24T13:59:39.291Z,44.00
2017-09-24T14:02:09.999Z,42.10
2017-09-24T14:04:41.362Z,43.30
2017-09-24T14:07:13.335Z,44.40
2017-09-24T14:09:44.694Z,44.90
2017-09-24T14:12:17.234Z,45.40
2017-09-24T14:14:48.183Z,45.40
2017-09-24T14:17:20.168Z,44.90
2017-09-24T14:19:51.388Z,43.70
2017-09-24T14:22:22.320Z,43.70
2017-09-24T14:24:54.167Z,43.20
2017-09-24T14:27:26.409Z,43.20
2017-09-24T14:29:57.437Z,43.10
2017-09-24T14:32:27.950Z,42.50
2017-09-24T14:34:59.342Z,42.80
2017-09-24T14:37:29.842Z,42.80
2017-09-24T14:40:00.746Z,44.70
2017-09-24T14:42:32.049Z,45.70
2017-09-24T14:45:03.300Z,45.80
2017-09-24T14:47:33.936Z,45.70
2017-09-24T14:50:05.348Z,45.90
2017-09-24T14:52:35.762Z,46.80
2017-09-24T14:55:07.741Z,48.30
2017-09-24T14:57:38.971Z,48.30
2017-09-24T15:00:10.532Z,49.10
2017-09-24T15:02:41.915Z,50.70
2017-09-24T15:05:13.128Z,52.30
2017-09-24T15:07:44.404Z,51.20
2017-09-24T15:10:16.985Z,48.90
2017-09-24T15:12:49.090Z,48.90
2017-09-24T15:15:20.801Z,50.40
2017-09-24T15:17:51.949Z,51.50
2017-09-24T15:20:23.010Z,53.00
2017-09-24T15:22:53.753Z,53.80
2017-09-24T15:25:25.481Z,54.30
2017-09-24T15:27:57.107Z,54.00
2017-09-24T15:30:28.793Z,53.30
2017-09-24T15:32:59.547Z,52.70
2017-09-24T15:35:30.389Z,52.40
2017-09-24T15:38:02.077Z,52.30
2017-09-24T15:40:33.595Z,53.10
2017-09-24T15:43:05.280Z,53.10
2017-09-24T15:45:37.703Z,53.20
2017-09-24T15:48:08.797Z,53.20
2017-09-24T15:50:40.156Z,53.40
2017-09-24T15:53:11.027Z,53.00
2017-09-24T15:55:43.463Z,53.50
2017-09-24T15:58:15.250Z,54.30
2017-09-24T16:00:46.457Z,54.30
2017-09-24T16:03:17.401Z,54.60
2017-09-24T16:05:49.367Z,55.30
2017-09-24T16:08:20.406Z,55.30
2017-09-24T16:10:52.880Z,56.00
2017-09-24T16:13:24.172Z,56.00
2017-09-24T16:15:54.967Z,56.10
2017-09-24T16:18:25.696Z,56.40
2017-09-24T16:20:57.023Z,56.80
2017-09-24T16:23:28.389Z,56.80
2017-09-24T16:25:59.573Z,57.30
2017-09-24T16:28:30.722Z,57.50
2017-09-24T16:31:02.308Z,57.70
2017-09-24T16:33:34.091Z,58.40
2017-09-24T16:36:05.239Z,58.40
2017-09-24T16:38:36.379Z,59.40
2017-09-24T16:41:07.623Z,60.20
2017-09-24T16:43:39.085Z,61.60
2017-09-24T16:46:10.429Z,62.30
2017-09-24T16:48:41.973Z,62.80
2017-09-24T16:51:13.718Z,63.60
2017-09-24T16:53:46.042Z,65.00
2017-09-24T16:56:19.376Z,65.60
2017-09-24T16:58:52.567Z,67.00
2017-09-24T17:03:51.076Z,66.70
2017-09-24T17:06:22.506Z,67.40
2017-09-24T17:08:54.090Z,68.30
2017-09-24T17:11:25.453Z,68.30
2017-09-24T17:13:56.659Z,68.70
2017-09-24T17:16:27.887Z,69.20
2017-09-24T17:18:59.417Z,69.50
2017-09-24T17:21:30.979Z,69.70
2017-09-24T17:24:02.378Z,70.00
2017-09-24T17:26:34.070Z,70.30
2017-09-24T17:29:05.574Z,70.50
2017-09-24T17:31:37.023Z,71.00
2017-09-24T17:34:08.693Z,71.10
2017-09-24T17:36:39.488Z,71.30
2017-09-24T17:39:11.208Z,71.60
2017-09-24T17:41:43.642Z,72.00
2017-09-24T17:44:14.784Z,72.00
2017-09-24T17:46:46.080Z,72.60
2017-09-24T17:49:17.024Z,73.00
2017-09-24T17:51:49.473Z,73.50
2017-09-24T17:54:20.638Z,73.50
2017-09-24T17:56:51.578Z,73.70
2017-09-24T17:59:22.978Z,74.20
2017-09-24T18:01:55.346Z,74.30
2017-09-24T18:04:27.670Z,74.60
2017-09-24T18:06:58.824Z,74.60
2017-09-24T18:09:31.286Z,75.50
2017-09-24T18:12:03.170Z,75.20
2017-09-24T18:14:34.481Z,75.30
2017-09-24T18:17:05.842Z,75.70
2017-09-24T18:19:37.173Z,76.00
2017-09-24T18:22:09.110Z,76.50
2017-09-24T18:24:40.616Z,76.60
2017-09-24T18:27:11.500Z,77.00
2017-09-24T18:29:42.991Z,77.50
2017-09-24T18:32:14.417Z,77.80
2017-09-24T18:34:46.576Z,78.70
2017-09-24T18:37:17.940Z,78.50
2017-09-24T18:39:49.421Z,78.80
2017-09-24T18:42:20.829Z,79.50
2017-09-24T18:44:52.423Z,79.50
2017-09-24T18:47:24.012Z,79.70
2017-09-24T18:49:55.618Z,79.70
2017-09-24T18:52:28.080Z,80.00
2017-09-24T18:55:00.533Z,80.10
2017-09-24T18:57:31.222Z,79.90
2017-09-24T19:00:03.174Z,80.20
2017-09-24T19:02:34.738Z,80.20
2017-09-24T19:05:07.116Z,80.20
2017-09-24T19:07:40.443Z,80.50
2017-09-24T19:10:12.456Z,80.40
2017-09-24T19:12:43.435Z,80.60
2017-09-24T19:15:14.741Z,80.10
2017-09-24T19:17:45.486Z,80.50
2017-09-24T19:20:17.165Z,80.90
2017-09-24T19:22:48.915Z,81.00
2017-09-24T19:25:23.285Z,81.00
2017-09-24T19:27:54.655Z,81.00
2017-09-24T19:30:26.419Z,82.00
2017-09-24T19:32:57.911Z,81.30
2017-09-24T19:35:29.257Z,81.40
2017-09-24T19:38:00.667Z,81.70
2017-09-24T19:40:32.196Z,81.70
2017-09-24T19:43:03.632Z,81.90
2017-09-24T19:45:34.682Z,82.20
2017-09-24T19:48:06.095Z,82.10
2017-09-24T19:50:37.570Z,82.20
2017-09-24T19:53:08.767Z,82.40
2017-09-24T19:55:41.282Z,82.60
2017-09-24T19:58:12.631Z,82.50
2017-09-24T20:00:45.375Z,82.70
2017-09-24T20:03:16.490Z,83.00
2017-09-24T20:05:48.424Z,83.10
2017-09-24T20:08:19.527Z,83.10
2017-09-24T20:10:50.749Z,83.20
2017-09-24T20:13:22.652Z,83.30
2017-09-24T20:15:53.706Z,83.30
2017-09-24T20:18:24.976Z,83.20
2017-09-24T20:20:56.306Z,83.10
2017-09-24T20:23:26.894Z,83.10
2017-09-24T20:25:58.994Z,83.20
2017-09-24T20:28:30.150Z,83.20
2017-09-24T20:31:01.570Z,83.60
2017-09-24T20:33:33.156Z,83.80
2017-09-24T20:36:04.787Z,84.00
2017-09-24T20:38:36.382Z,84.10
2017-09-24T20:41:07.459Z,84.20
2017-09-24T20:43:37.985Z,84.40
2017-09-24T20:46:09.407Z,84.40
2017-09-24T20:48:41.509Z,84.60
2017-09-24T20:51:12.368Z,85.00
2017-09-24T20:53:43.631Z,85.40
2017-09-24T20:56:15.899Z,85.40
2017-09-24T20:58:47.192Z,85.40
2017-09-24T21:01:18.616Z,85.30
2017-09-24T21:03:49.744Z,85.60
2017-09-24T21:06:20.954Z,85.70
2017-09-24T21:08:52.654Z,85.70
2017-09-24T21:11:24.489Z,85.90
2017-09-24T21:13:55.573Z,85.70
2017-09-24T21:16:27.413Z,85.70
2017-09-24T21:18:58.228Z,85.70
2017-09-24T21:21:29.323Z,85.50
2017-09-24T21:24:01.460Z,85.50
2017-09-24T21:26:32.870Z,85.40
2017-09-24T21:29:04.383Z,85.40
2017-09-24T21:31:36.425Z,85.40
2017-09-24T21:34:07.150Z,85.40
2017-09-24T21:36:38.713Z,85.50
2017-09-24T21:39:09.559Z,85.60
2017-09-24T21:41:41.577Z,85.60
2017-09-24T21:44:12.645Z,85.50
2017-09-24T21:46:43.867Z,85.80
2017-09-24T21:49:16.138Z,85.90
2017-09-24T21:51:47.507Z,86.20
2017-09-24T21:54:19.512Z,86.40
2017-09-24T21:56:51.547Z,87.30
2017-09-24T21:59:23.723Z,87.00
2017-09-24T22:01:55.620Z,87.00
2017-09-24T22:04:27.570Z,87.00
2017-09-24T22:06:59.625Z,87.40
2017-09-24T22:09:31.419Z,87.40
2017-09-24T22:12:02.516Z,87.40
2017-09-24T22:14:33.727Z,87.60
2017-09-24T22:17:04.694Z,87.60
2017-09-24T22:19:35.865Z,88.20
2017-09-24T22:22:07.183Z,88.20
2017-09-24T22:24:38.359Z,88.20
2017-09-24T22:27:09.117Z,88.50
2017-09-24T22:29:40.241Z,88.60
2017-09-24T22:32:12.294Z,88.60
2017-09-24T22:34:43.680Z,88.90
2017-09-24T22:37:14.901Z,88.80
2017-09-24T22:39:46.784Z,89.40
2017-09-24T22:42:17.825Z,89.50
2017-09-24T22:44:48.738Z,89.50
2017-09-24T22:47:20.858Z,89.70
2017-09-24T22:49:51.800Z,89.70
2017-09-24T22:52:22.973Z,90.00
2017-09-24T22:54:54.879Z,90.00
2017-09-24T22:57:26.011Z,90.00
2017-09-24T22:59:56.795Z,90.10
2017-09-24T23:02:27.472Z,90.10
2017-09-24T23:04:58.511Z,90.10
2017-09-24T23:07:29.138Z,90.10
2017-09-24T23:10:00.348Z,90.10
2017-09-24T23:12:31.996Z,90.10
2017-09-24T23:15:03.079Z,90.10
2017-09-24T23:17:34.304Z,90.20
2017-09-24T23:20:06.458Z,90.30
2017-09-24T23:22:38.235Z,90.20
2017-09-24T23:25:09.812Z,90.20
2017-09-24T23:27:42.323Z,90.40
2017-09-24T23:30:13.506Z,90.40
2017-09-24T23:32:45.536Z,90.40
2017-09-24T23:35:16.967Z,90.40
2017-09-24T23:37:48.733Z,90.60
2017-09-24T23:40:19.730Z,90.60
2017-09-24T23:42:50.559Z,90.70
2017-09-24T23:45:21.631Z,90.70
2017-09-24T23:47:54.309Z,90.60
2017-09-24T23:50:25.415Z,90.60
2017-09-24T23:52:57.677Z,90.80
2017-09-24T23:55:29.990Z,90.50
2017-09-24T23:58:01.477Z,90.80
